FW3061 Weather Reports


time (UTC)temp
C
wind
direction
speed
KPH
gust
KPH
rain 1hr
cm
rain 24hr
cm
rain mn
cm
humidity
%
barometer
mb
20190421000047 10 140 0.0 4.8 0.00 0.00 0.00 47 1023.5
20190420234610 10 123 0.0 1.6 0.00 0.00 0.00 49 1023.5
20190420233024 11 123 1.6 11.3 0.00 0.00 0.00 48 1023.6
20190420231544 11 70 4.8 8.0 0.00 0.00 0.00 47 1023.7
20190420230016 11 69 3.2 6.4 0.00 0.00 0.00 45 1023.6
20190420224508 11 131 1.6 4.8 0.00 0.00 0.00 45 1023.8
20190420223005 12 130 3.2 9.7 0.00 0.00 0.00 43 1023.9
20190420221502 12 86 1.6 6.4 0.00 0.00 0.00 43 1023.9
20190420220216 12 92 1.6 6.4 0.00 0.00 0.00 43 1023.9
20190420214647 12 80 1.6 4.8 0.00 0.00 0.00 43 1024.0
20190420213151 13 134 1.6 4.8 0.00 0.00 0.00 42 1024.0
20190420211656 13 108 1.6 4.8 0.00 0.00 0.00 43 1024.1
20190420210314 14 84 8.0 12.9 0.00 0.00 0.00 41 1024.1
20190420204640 13 138 3.2 8.0 0.00 0.00 0.00 43 1024.1
20190420203148 13 180 1.6 4.8 0.00 0.00 0.00 47 1024.1
20190420201640 13 167 4.8 8.0 0.00 0.00 0.00 48 1024.1
20190420200112 14 145 0.0 4.8 0.00 0.00 0.00 44 1023.8
20190420194653 15 88 6.4 12.9 0.00 0.00 0.00 43 1023.7
20190420193108 15 74 4.8 11.3 0.00 0.00 0.00 43 1023.8
20190420191721 15 96 6.4 12.9 0.00 0.00 0.00 41 1023.7
20190420190133 16 134 1.6 3.2 0.00 0.00 0.00 40 1023.7
20190420184642 16 167 6.4 9.7 0.00 0.00 0.00 37 1023.7
20190420181644 17 180 4.8 11.3 0.00 0.00 0.00 35 1023.6
20190420180134 17 168 6.4 11.3 0.00 0.00 0.00 39 1023.5
20190420174627 18 184 4.8 8.0 0.00 0.00 0.00 34 1023.4
20190420173136 20 168 3.2 12.9 0.00 0.00 0.00 31 1023.2
20190420171615 21 360 3.2 12.9 0.00 0.00 0.00 27 1023.2
20190420170140 21 275 1.6 14.5 0.00 0.00 0.00 28 1023.1
20190420164713 21 269 1.6 8.0 0.00 0.00 0.00 29 1023.3
20190420163114 21 5 3.2 19.3 0.00 0.00 0.00 29 1023.4
20190420161557 21 281 6.4 14.5 0.00 0.00 0.00 28 1023.5
20190420160118 21 313 6.4 16.1 0.00 0.00 0.00 29 1023.7
20190420154645 21 5 6.4 14.5 0.00 0.00 0.00 28 1023.8
20190420153100 22 15 3.2 17.7 0.00 0.00 0.00 28 1023.9
20190420151554 22 348 1.6 12.9 0.00 0.00 0.00 27 1024.0
20190420150117 21 302 4.8 14.5 0.00 0.00 0.00 26 1024.2
20190420144558 21 346 4.8 16.1 0.00 0.00 0.00 26 1024.3
20190420143131 22 349 6.4 16.1 0.00 0.00 0.00 25 1024.5
20190420140048 22 331 6.4 19.3 0.00 0.00 0.00 20 1024.9
20190420134542 21 69 4.8 16.1 0.00 0.00 0.00 23 1025.1
20190420133037 22 348 3.2 12.9 0.00 0.00 0.00 26 1025.2
20190420131537 22 26 4.8 17.7 0.00 0.00 0.00 25 1025.3
20190420130101 21 25 6.4 14.5 0.00 0.00 0.00 22 1025.5
20190420124534 22 326 3.2 12.9 0.00 0.00 0.00 27 1025.5
20190420123108 22 315 4.8 14.5 0.00 0.00 0.00 24 1025.6
20190420121526 21 346 4.8 20.9 0.00 0.00 0.00 22 1025.7
20190420120027 21 350 3.2 16.1 0.00 0.00 0.00 21 1025.9
20190420114525 22 186 4.8 8.0 0.00 0.00 0.00 16 1025.9
20190420113033 21 313 3.2 8.0 0.00 0.00 0.00 18 1026.1
20190420111521 21 237 3.2 9.7 0.00 0.00 0.00 21 1026.1
20190420110018 22 290 3.2 9.7 0.00 0.00 0.00 22 1026.2
20190420104547 21 255 1.6 9.7 0.00 0.00 0.00 18 1026.1
20190420103023 21 282 1.6 8.0 0.00 0.00 0.00 17 1026.2
20190420101505 21 281 3.2 11.3 0.00 0.00 0.00 22 1026.4
20190420100006 21 288 1.6 6.4 0.00 0.00 0.00 25 1026.5
20190420094701 20 200 0.0 6.4 0.00 0.00 0.00 23 1026.7
20190420093132 19 273 3.2 8.0 0.00 0.00 0.00 24 1026.8
20190420091621 18 327 3.2 6.4 0.00 0.00 0.00 29 1026.9
20190420090120 17 281 3.2 11.3 0.00 0.00 0.00 36 1027.0
20190420084651 16 282 1.6 11.3 0.00 0.00 0.00 37 1027.1
20190420083139 16 241 4.8 11.3 0.00 0.00 0.00 32 1027.2
20190420081632 15 237 4.8 11.3 0.00 0.00 0.00 38 1027.3
20190420080053 15 301 1.6 6.4 0.00 0.00 0.00 37 1027.5
20190420074616 15 238 3.2 6.4 0.00 0.00 0.00 41 1027.6
20190420073122 14 58 3.2 4.8 0.00 0.00 0.00 41 1027.6
20190420071533 13 171 0.0 3.2 0.00 0.00 0.00 40 1027.9
20190420070030 12 355 1.6 4.8 0.00 0.00 0.00 46 1028.0
20190420064542 11 86 0.0 6.4 0.00 0.00 0.00 52 1027.9
20190420063025 11 295 0.0 4.8 0.00 0.00 0.00 48 1027.9
20190420061517 10 17 1.6 4.8 0.00 0.00 0.00 56 1027.9
20190420060135 10 63 3.2 4.8 0.00 0.00 0.00 58 1028.0
20190420054637 8 92 0.0 6.4 0.00 0.00 0.00 59 1027.8
20190420053215 7 109 0.0 6.4 0.00 0.00 0.00 59 1027.7
20190420044633 7 96 0.0 4.8 0.00 0.00 0.00 60 1027.5
20190420043217 7 58 0.0 4.8 0.00 0.00 0.00 60 1027.6
20190420041616 7 76 6.4 12.9 0.00 0.00 0.00 57 1027.5
20190420040112 8 136 4.8 12.9 0.00 0.00 0.00 54 1027.5
20190420034613 7 113 1.6 4.8 0.00 0.00 0.00 58 1027.6
20190420033112 7 64 0.0 3.2 0.00 0.00 0.00 59 1027.5
20190420031609 7 64 0.0 3.2 0.00 0.00 0.00 59 1027.6
20190420030128 7 138 0.0 4.8 0.00 0.00 0.00 59 1027.6
20190420024548 7 167 1.6 6.4 0.00 0.00 0.00 57 1027.6
20190420023129 7 67 0.0 3.2 0.00 0.00 0.00 59 1027.7
20190420021546 7 52 4.8 9.7 0.00 0.00 0.00 58 1027.7
20190420020200 8 60 0.0 4.8 0.00 0.00 0.00 58 1027.7
20190420014545 8 70 0.0 8.0 0.00 0.00 0.00 56 1027.7
20190420013058 8 71 9.7 12.9 0.00 0.00 0.00 56 1027.8
20190420011606 8 138 3.2 6.4 0.00 0.00 0.00 54 1027.6
20190420010054 8 178 0.0 1.6 0.00 0.00 0.00 58 1027.7
20190420004631 8 71 4.8 9.7 0.00 0.00 0.00 56 1027.7
20190420003107 8 79 1.6 6.4 0.00 0.00 0.00 56 1027.7
20190420001551 8 51 0.0 4.8 0.00 0.00 0.00 57 1027.6